Gulfport Biloxi International Airport Gulfport US
ICAO: KGPT
IATA: GPT
Category: Large
Scheduled Services: Yes

Elevation: 28 ft
TransAlt. 18000 ft.

Airport Communications:
APP/DEP:124.6
ATIS:119.45
CTAF:123.7
GND:120.4
ANG OPS:37.78
GREENWOOD RDO:109
TWR:123.7
UNICOM:122.95

KGPT Zoom In..

If Map Doesn't Load, Click Here

Runways:

(A) RW 14 length 9002 ft width 150 ft
ILS 110.90 / hdg 133

(B) RW 18 length 4935 ft width 150 ft
---- / hdg 178

(C) RW 32 length 9002 ft width 150 ft
ILS 108.30 / hdg 313

(D) RW 36 length 4935 ft width 150 ft
---- / hdg 358

Location; KGPT
Day. 21 / Time. 15.53 Zulu
* Altimeter: 30.06
* Temperature: 32° c. 89.6°f.
* Wind from: 120° Speed 08 kn.
Dewpoint: 23° c.
Visibility: 10 Statute Miles.
Clouds: Scattered 2700 ft.

KGPT 211553Z 12008KT 10SM SCT027 32/23 A3006 RMK AO2 SLP179 T03170233


Wind From 120°
Speed 08 kn.

 
 
jpsmedia.com for Web Design worldairports.se 2018   terms of use